map of KRFI home
KRFI - Airport
Location
City:  Henderson, Texas, United States
Name:Rusk County Airport
ICAO:KRFI
FAA LID:RFI

Details
Type:Airport (Airfield)
Use:Public/Civil
Latitude:3208'30"N (32.141722)
Longitude:9451'06"W (-94.851721)
Datum:WGS 1984
Elevation:442 ft (135 m)
Variation:2.01E (WMM2015v2 magnetic declination)
-0.10 annual change
Runways:2
Longest:4006 × 75 ft (1221 × 23 m), paved

Time
Time Zone:UTC-6 (DST-5)
Local Time:

Weather
METAR:KRFI 041415Z AUTO 19005KT 7SM OVC007 18/17 A2991 RMK AO2 T01830172

Related Locations
Nearby:
Farthest:CCK: 10873 mi / 17498 km
West Island (Pulau Panjang) [Cocos (Keeling) Islands], CC

Find:

   beyond  
but within

Other Information
Maps:
NOTAMs:
Links:
Sources:

  
  • flag of United States
  • flag of Texas
  

Sectional Chart

Flight Planning
at skyvector.com

Satellite Image

Google Maps Satellite view

 

Copyright © 2004-2019 Karl L. Swartz. All rights reserved.
The Great Circle Mapper name and logo are trademarks of the Great Circle Mapper.
All other trademarks mentioned herein belong to their respective owners.
Please see credits for attibutions and further copyright information.

  Follow gcmap on Facebook Follow gcmap on Twitter GCmap on LinkedIn

hCard Microformat

Geo Microformat